Tiempo atmosférico en la estación meteorológica de Peraleda Del Zaucejo, Badajoz (542 m.)



Fecha
DESCASC
Temp. máxima en grados centígrados (hora)
DESCASC
Temp. mínima en grados centígrados (hora)
DESCASC
Temp. media en grados centígrados
DESCASC
Racha de viento máxima en m/sg (hora)
DESCASC
Velocidad máxima media en intervalos de 10 minutos(hora)
DESCASC
Precipitaciones diarias en mm
DESCASC
Precipitaciones de 00:00 a 06:00 en mm
DESCASC
Precipitaciones de 06:00 a 12:00 en mm
DESCASC
Precipitaciones de 12:00 a 18:00 en mm
DESCASC
Precipitaciones de 18:00 a 24:00 en mm
DESCASC
14-12-2019 12.4 (14:40) 10.1 (06:00) 11.3 8.89 (00:20) 5.56 (00:20) 0 0 0 0 0
13-12-2019 13.7 (15:50) 10.8 (00:00) 12.3 16.67 (06:10) 10.28 (02:50) 0.2 0.2 0 0 0
12-12-2019 10.8 (16:10) 4.6 (06:20) 7.7 12.5 (16:50) 8.89 (14:50) 0.4 0 0 0 0.4
11-12-2019 10.1 (13:10) 1.1 (00:00) 5.6 10.56 (11:20) 7.22 (11:30) 0 0 0 0 0
10-12-2019 13.5 (14:30) 3.4 (00:00) 8.5 4.17 (07:20) 2.78 (03:50) 0 0 0 0 0
09-12-2019 13 (13:40) 4.6 (00:00) 8.8 6.39 (00:50) 4.17 (00:10) 0 0 0 0 0
08-12-2019 14.5 (15:50) 1.6 (00:00) 8.1 5.83 (15:50) 3.61 (15:30) 0.4 0 0 0 0.4
07-12-2019 14.3 (16:50) 2 (00:00) 8.2 4.44 (17:00) 2.78 (17:00) 0 0 0 0 0
06-12-2019 14.7 (15:00) 5.8 (00:00) 10.3 7.5 (16:00) 4.44 (00:30) 0 0 0 0 0
05-12-2019 12.9 (14:30) 5.4 (00:00) 9.1 10.56 (13:10) 6.67 (13:20) 0 0 0 0 0
04-12-2019 11.5 (17:00) 6.7 (00:00) 9.1 5.28 (02:10) 3.06 (02:10) 0 0 0 0 0
03-12-2019 12.9 (14:50) 7.2 (00:00) 10 10.83 (11:20) 6.39 (10:30) 0 0 0 0 0
02-12-2019 11.9 (15:50) 7.5 (00:00) 9.7 12.78 (16:10) 8.61 (11:50) 2 2 0 0 0
01-12-2019 11.9 (16:10) 6.1 (00:00) 9 10.28 (13:30) 5.83 (13:30) 2.4 0 0.4 0.6 1.4
30-11-2019 15 (16:00) 7.5 (00:00) 11.3 11.11 (22:00) 6.67 (22:20) 1 0 0 0 1
29-11-2019 15.9 (15:50) 7.5 (00:00) 11.7 6.11 (04:40) 4.72 (05:40) 0 0 0 0 0
28-11-2019 15 (15:50) 8.1 (00:00) 11.6 6.67 (16:10) 5 (16:10) 0 0 0 0 0
27-11-2019 14.9 (14:00) 8.2 (00:00) 11.5 11.67 (13:50) 6.39 (14:00) 0.8 0.8 0 0 0
26-11-2019 15.9 (14:30) 9.8 (00:00) 12.8 11.67 (15:00) 7.5 (14:40) 1.8 0 0.4 0 1.4
25-11-2019 16.8 (14:50) 9.6 (00:00) 13.2 11.94 (14:20) 7.78 (13:30) 4.4 1 3.4 0 0
24-11-2019 12.9 (14:30) 5.9 (00:00) 9.4 11.39 (01:00) 8.33 (01:00) 0 0 0 0 0
23-11-2019 12.2 (15:00) 7.7 (00:00) 9.9 16.67 (03:40) 10.28 (03:40) 2.4 2.4 0 0 0
22-11-2019 14.1 (16:00) 9.5 (00:00) 11.8 19.44 (16:00) 10.28 (17:00) 19.6 0.2 3.6 15.6 0.2
21-11-2019 11.8 (16:40) 7.9 (00:00) 9.9 5.56 (08:40) 3.61 (11:40) 3.4 0 0.4 3 0
20-11-2019 8.1 (17:00) 1.3 (00:00) 4.7 6.11 (18:30) 4.72 (18:30) 11.2 0 4.6 3.4 3.2
19-11-2019 12.5 (15:40) 0.9 (00:00) 6.7 4.72 (14:40) 2.22 (13:50) 0 0 0 0 0
18-11-2019 13.1 (15:50) 3.8 (00:00) 8.5 10.83 (01:10) 6.94 (00:10) 0.2 0.2 0 0 0
17-11-2019 12.5 (16:40) 3.2 (00:00) 7.9 13.89 (19:30) 9.44 (19:30) 11 0 2.4 2.8 5.8
16-11-2019 11.6 (15:40) 1.2 (00:00) 6.4 8.89 (04:00) 5.83 (04:00) 0 0 0 0 0
15-11-2019 9.7 (16:00) 3.4 (00:00) 6.5 17.22 (04:10) 11.11 (03:40) 0 0 0 0 0

Gráficas

Temp. máximas Temp. mínimas Temp. medias Precipitaciones Rachas de viento máximas Velocidades máximas media en intervalos de 10 minutos

Datos horarios

Fecha y hora oficial Temperatura (ºC) Velocidad del viento (km/h) Dirección del viento Racha (km/h) Dirección de racha Precipitación (mm) Presión (hPa) Tendencia (hPa) Humedad (%)
2019-12-14 23:00:00 10.5 5 Sudoeste 10 Sudoeste 0 -- -- 89
2019-12-14 22:00:00 10.8 7 Sudoeste 14 Sudoeste 0 -- -- 87
2019-12-14 21:00:00 10.9 10 Sudoeste 17 Sudoeste 0 -- -- 88
2019-12-14 20:00:00 11.1 7 Oeste 10 Oeste 0 -- -- 81
2019-12-14 19:00:00 11.4 9 Oeste 14 Oeste 0 -- -- 82
2019-12-14 18:00:00 11.9 9 Oeste 15 Oeste 0 -- -- 75
2019-12-14 17:00:00 12.4 14 Oeste 21 Oeste 0 -- -- 73
2019-12-14 16:00:00 12.3 8 Noroeste 19 Noroeste 0 -- -- 77
2019-12-14 15:00:00 12.4 11 Noroeste 19 Noroeste 0 -- -- 75
2019-12-14 14:00:00 12.2 11 Noroeste 25 Oeste 0 -- -- 74
2019-12-14 13:00:00 12.1 14 Oeste 24 Oeste 0 -- -- 74
2019-12-14 12:00:00 11.7 16 Oeste 20 Oeste 0 -- -- 77
2019-12-14 11:00:00 11.2 15 Oeste 24 Oeste 0 -- -- 80
2019-12-14 10:00:00 10.9 13 Noroeste 27 Oeste 0 -- -- 78
2019-12-14 09:00:00 10.3 13 Noroeste 28 Oeste 0 -- -- 78
2019-12-14 08:00:00 10.1 14 Noroeste 28 Oeste 0 -- -- 82
2019-12-14 07:00:00 10.2 17 Noroeste 26 Noroeste 0 -- -- 82
2019-12-14 06:00:00 10.1 9 Oeste 17 Oeste 0 -- -- 89
2019-12-14 05:00:00 10.4 9 Noroeste 13 Noroeste 0 -- -- 86
2019-12-14 04:00:00 10.4 7 Oeste 11 Oeste 0 -- -- 88
2019-12-14 03:00:00 10.6 4 Oeste 23 Oeste 0 -- -- 85
2019-12-14 02:00:00 10.7 9 Oeste 25 Oeste 0 -- -- 91
2019-12-14 01:00:00 10.9 18 Oeste 32 Oeste 0 -- -- 94
2019-12-14 00:00:00 11.1 16 Noroeste 37 Oeste 0 -- -- 93
2019-12-13 23:00:00 11.1 21 Oeste 38 Noroeste 0 -- -- 93
2019-12-13 22:00:00 11.2 18 Oeste 28 Oeste 0 -- -- 93
2019-12-13 21:00:00 11.2 13 Oeste 22 Oeste 0 -- -- 92
2019-12-13 20:00:00 11.4 17 Oeste 27 Oeste 0 -- -- 90
2019-12-13 19:00:00 12.5 17 Oeste 29 Oeste 0 -- -- 84
2019-12-13 18:00:00 13 21 Oeste 30 Noroeste 0 -- -- 82
2019-12-13 17:00:00 13.4 19 Noroeste 33 Oeste 0 -- -- 80
2019-12-13 16:00:00 13.6 19 Oeste 36 Noroeste 0 -- -- 81
2019-12-13 15:00:00 13.2 22 Noroeste 36 Noroeste 0 -- -- 82
2019-12-13 14:00:00 12.5 16 Noroeste 30 Oeste 0 -- -- 88
2019-12-13 13:00:00 11.8 23 Oeste 37 Oeste 0 -- -- 94
2019-12-13 12:00:00 11.4 15 Noroeste 32 Oeste 0 -- -- 94
2019-12-13 11:00:00 11.1 23 Oeste 42 Noroeste 0 -- -- 94
2019-12-13 10:00:00 11.2 28 Oeste 46 Oeste 0 -- -- 92
2019-12-13 09:00:00 11 28 Oeste 49 Oeste 0 -- -- 91
2019-12-13 08:00:00 11.1 23 Oeste 47 Oeste 0 -- -- 90
2019-12-13 07:00:00 10.9 36 Oeste 60 Oeste 0 -- -- 90
2019-12-13 06:00:00 11.1 31 Oeste 53 Oeste 0 -- -- 91
2019-12-13 05:00:00 11.5 34 Oeste 53 Oeste 0.2 -- -- 94
2019-12-13 04:00:00 11.8 26 Oeste 53 Oeste 0 -- -- 92
2019-12-13 03:00:00 11.8 36 Oeste 56 Oeste 0 -- -- 94
2019-12-13 02:00:00 11.7 28 Oeste 43 Oeste 0 -- -- 94
2019-12-13 01:00:00 11.4 24 Oeste 36 Oeste 0 -- -- 95
2019-12-13 00:00:00 10.8 18 Oeste 32 Oeste 0 -- -- 96
2019-12-12 23:00:00 10.5 17 Oeste 33 Oeste 0 -- -- 96
2019-12-12 22:00:00 10 26 Oeste 44 Oeste 0.2 -- -- 97
2019-12-12 21:00:00 9.7 24 Oeste 38 Oeste 0 -- -- 96
2019-12-12 20:00:00 9.3 13 Oeste 37 Oeste 0.2 -- -- 95
2019-12-12 19:00:00 9.9 18 Oeste 40 Oeste 0 -- -- 88
2019-12-12 18:00:00 10.6 22 Oeste 42 Oeste 0 -- -- 80
2019-12-12 17:00:00 10.7 23 Oeste 45 Oeste 0 -- -- 79
2019-12-12 16:00:00 10.7 21 Oeste 39 Oeste 0 -- -- 79
2019-12-12 15:00:00 10.7 25 Oeste 43 Oeste 0 -- -- 78
2019-12-12 14:00:00 10.7 24 Oeste 38 Oeste 0 -- -- 75
2019-12-12 13:00:00 10.3 23 Oeste 36 Oeste 0 -- -- 78
2019-12-12 12:00:00 8.7 18 Oeste 29 Oeste 0 -- -- 88
2019-12-12 11:00:00 8.1 16 Oeste 26 Oeste 0 -- -- 91
2019-12-12 10:00:00 6.8 15 Oeste 28 Oeste 0 -- -- 94
2019-12-12 09:00:00 6.5 18 Oeste 29 Oeste 0 -- -- 95
2019-12-12 08:00:00 5.7 17 Oeste 33 Oeste 0 -- -- 97
2019-12-12 07:00:00 5 26 Oeste 41 Oeste 0 -- -- 96
2019-12-12 06:00:00 5.1 24 Oeste 32 Oeste 0 -- -- 90
2019-12-12 05:00:00 6.6 13 Oeste 26 Noroeste 0 -- -- 78
2019-12-12 04:00:00 6.5 13 Noroeste 26 Norte 0 -- -- 75
2019-12-12 03:00:00 6.6 18 Noroeste 30 Noroeste 0 -- -- 74
2019-12-12 02:00:00 6.3 14 Noroeste 30 Noroeste 0 -- -- 73
2019-12-12 01:00:00 6.5 13 Noroeste 28 Noroeste 0 -- -- 70
2019-12-12 00:00:00 6.9 16 Noroeste 25 Noroeste 0 -- -- 68
2019-12-11 23:00:00 7 14 Noroeste 25 Noroeste 0 -- -- 69
2019-12-11 22:00:00 7.1 10 Noroeste 23 Noroeste 0 -- -- 68
2019-12-11 21:00:00 8.4 12 Noroeste 32 Noroeste 0 -- -- 62
2019-12-11 20:00:00 8.7 15 Noroeste 30 Noroeste 0 -- -- 68
2019-12-11 19:00:00 9.3 16 Noroeste 34 Noroeste 0 -- -- 68
2019-12-11 18:00:00 9.2 15 Noroeste 27 Noroeste 0 -- -- 79
2019-12-11 17:00:00 9.7 16 Noroeste 36 Noroeste 0 -- -- 79
2019-12-11 16:00:00 9.7 17 Noroeste 34 Noroeste 0 -- -- 83
2019-12-11 15:00:00 9.6 18 Noroeste 29 Noroeste 0 -- -- 89
2019-12-11 14:00:00 9.7 10 Noroeste 24 Noroeste 0 -- -- 95
2019-12-11 13:00:00 10 13 Oeste 28 Sudoeste 0 -- -- 95
2019-12-11 12:00:00 8.9 19 Oeste 38 Oeste 0 -- -- 95
2019-12-11 11:00:00 8.7 21 Oeste 30 Oeste 0 -- -- 89
2019-12-11 10:00:00 6.5 3 Sudeste 14 Sudoeste 0 -- -- 100
2019-12-11 09:00:00 2.6 0 Calma 6 Sudoeste 0 -- -- 100
2019-12-11 08:00:00 1.1 2 Noroeste 4 Oeste 0 -- -- 100
2019-12-11 07:00:00 1.5 0 Calma 5 Este 0 -- -- 99
2019-12-11 06:00:00 1.9 4 Noroeste 8 Noroeste 0 -- -- 100
2019-12-11 05:00:00 1.7 0 Calma 2 Oeste 0 -- -- 99
2019-12-11 04:00:00 1.7 0 Calma 3 Norte 0 -- -- 98
2019-12-11 03:00:00 2.7 0 Calma 4 Noroeste 0 -- -- 98
2019-12-11 02:00:00 3.1 3 Noroeste 5 Noroeste 0 -- -- 99
2019-12-11 01:00:00 3 0 Calma 4 Noroeste 0 -- -- 98
2019-12-11 00:00:00 3.5 0 Calma 3 Oeste 0 -- -- 98
2019-12-10 23:00:00 4 2 Noroeste 3 Noroeste 0 -- -- 98
2019-12-10 22:00:00 4.5 0 Calma 4 Noroeste 0 -- -- 97
2019-12-10 21:00:00 5.5 0 Calma 3 Oeste 0 -- -- 96
2019-12-10 20:00:00 6.1 0 Calma 3 Noroeste 0 -- -- 92
2019-12-10 19:00:00 8.1 0 Calma 4 Este 0 -- -- 90
2019-12-10 18:00:00 10.9 0 Calma 4 Oeste 0 -- -- 83
2019-12-10 17:00:00 12.8 0 Calma 8 Este 0 -- -- 71
2019-12-10 16:00:00 13 5 Este 12 Este 0 -- -- 69
2019-12-10 15:00:00 13.2 9 Este 13 Sudeste 0 -- -- 66
2019-12-10 14:00:00 13 4 Este 7 Este 0 -- -- 62
2019-12-10 13:00:00 8.8 2 Este 6 Oeste 0 -- -- 88
2019-12-10 12:00:00 5.5 3 Este 9 Este 0 -- -- 100
2019-12-10 11:00:00 5.1 5 Nordeste 10 Este 0 -- -- 100
2019-12-10 10:00:00 5 5 Este 9 Este 0 -- -- 100
2019-12-10 09:00:00 4.9 5 Nordeste 11 Nordeste 0 -- -- 99
2019-12-10 08:00:00 5.6 7 Nordeste 15 Nordeste 0 -- -- 99
2019-12-10 07:00:00 6.7 8 Nordeste 12 Este 0 -- -- 99
2019-12-10 06:00:00 7 5 Nordeste 13 Nordeste 0 -- -- 98
2019-12-10 05:00:00 7.6 5 Nordeste 10 Este 0 -- -- 98
2019-12-10 04:00:00 7.8 7 Este 14 Nordeste 0 -- -- 99
2019-12-10 03:00:00 7.6 0 Calma 6 Noroeste 0 -- -- 100
2019-12-10 02:00:00 6.9 5 Noroeste 7 Noroeste 0 -- -- 99
2019-12-10 01:00:00 6.4 0 Calma 4 Sudeste 0 -- -- 100
2019-12-10 00:00:00 4.7 0 Calma 4 Noroeste 0 -- -- 99
2019-12-09 23:00:00 5.2 0 Calma 4 Norte 0 -- -- 97
2019-12-09 22:00:00 7 3 Oeste 5 Oeste 0 -- -- 97
2019-12-09 21:00:00 8 0 Calma 3 Oeste 0 -- -- 97
2019-12-09 20:00:00 8.2 0 Calma 5 Oeste 0 -- -- 96
2019-12-09 19:00:00 9.4 0 Calma 9 Sudeste 0 -- -- 91
2019-12-09 18:00:00 11.5 5 Este 9 Este 0 -- -- 87
2019-12-09 17:00:00 12.7 8 Este 12 Este 0 -- -- 81
2019-12-09 16:00:00 12.8 3 Este 6 Nordeste 0 -- -- 80
2019-12-09 15:00:00 12.5 4 Este 12 Sudeste 0 -- -- 80
2019-12-09 14:00:00 12.7 5 Sudeste 10 Sudeste 0 -- -- 78
2019-12-09 13:00:00 12 7 Sudeste 12 Este 0 -- -- 82
2019-12-09 12:00:00 11.2 3 Nordeste 9 Nordeste 0 -- -- 86
2019-12-09 11:00:00 10.5 6 Noroeste 11 Noroeste 0 -- -- 90
2019-12-09 10:00:00 10.2 5 Noroeste 9 Noroeste 0 -- -- 97
2019-12-09 09:00:00 10.3 3 Norte 6 Norte 0 -- -- 98
2019-12-09 08:00:00 10.5 4 Norte 7 Noroeste 0 -- -- 98
2019-12-09 07:00:00 11 6 Norte 12 Noroeste 0 -- -- 97
2019-12-09 06:00:00 11.9 2 Noroeste 11 Noroeste 0 -- -- 95
2019-12-09 05:00:00 12.3 3 Noroeste 14 Noroeste 0 -- -- 93
2019-12-09 04:00:00 12.2 8 Noroeste 13 Noroeste 0 -- -- 95
2019-12-09 03:00:00 12 4 Oeste 8 Noroeste 0 -- -- 97
2019-12-09 02:00:00 11.9 3 Norte 19 Noroeste 0 -- -- 97
2019-12-09 01:00:00 11.8 9 Noroeste 23 Noroeste 0 -- -- 98
2019-12-09 00:00:00 11.6 12 Noroeste 19 Noroeste 0 -- -- 97
2019-12-08 23:00:00 11.3 11 Noroeste 19 Oeste 0 -- -- 96
2019-12-08 22:00:00 11.2 8 Noroeste 12 Noroeste 0 -- -- 95
2019-12-08 21:00:00 11 6 Oeste 15 Oeste 0 -- -- 95
2019-12-08 20:00:00 11.2 7 Oeste 18 Noroeste 0.4 -- -- 93
2019-12-08 19:00:00 11.7 4 Oeste 16 Noroeste 0 -- -- 87
2019-12-08 18:00:00 12.6 4 Oeste 10 Noroeste 0 -- -- 71
2019-12-08 17:00:00 13.9 10 Noroeste 16 Noroeste 0 -- -- 66
2019-12-08 16:00:00 14.2 12 Oeste 21 Oeste 0 -- -- 70
2019-12-08 15:00:00 14.1 11 Noroeste 17 Noroeste 0 -- -- 69
2019-12-08 14:00:00 12.5 0 Calma 8 Nordeste 0 -- -- 85
2019-12-08 13:00:00 9.8 3 Este 7 Este 0 -- -- 100
2019-12-08 12:00:00 5.8 0 Calma 5 Este 0 -- -- 100
2019-12-08 11:00:00 4 0 Calma 4 Noroeste 0 -- -- 100
2019-12-08 10:00:00 2.6 0 Calma 4 Noroeste 0 -- -- 100
2019-12-08 09:00:00 1.8 2 Oeste 4 Noroeste 0 -- -- 100
2019-12-08 08:00:00 1.7 3 Noroeste 5 Noroeste 0 -- -- 100
2019-12-08 07:00:00 2.3 0 Calma 2 Sudeste 0 -- -- 100
2019-12-08 06:00:00 2 0 Calma 4 Noroeste 0 -- -- 100
2019-12-08 05:00:00 2 0 Calma 3 Noroeste 0 -- -- 100
2019-12-08 04:00:00 1.9 0 Calma 3 Este 0 -- -- 99
2019-12-08 03:00:00 2.1 0 Calma 2 Sudeste 0 -- -- 99
2019-12-08 02:00:00 2.5 0 Calma 3 Noroeste 0 -- -- 99
2019-12-08 01:00:00 2.8 0 Calma 4 Noroeste 0 -- -- 98
2019-12-08 00:00:00 3 3 Noroeste 4 Noroeste 0 -- -- 98
2019-12-07 23:00:00 4.3 0 Calma 4 Sur 0 -- -- 98
2019-12-07 22:00:00 3.8 2 Oeste 5 Noroeste 0 -- -- 96
2019-12-07 21:00:00 4.7 2 Noroeste 4 Noroeste 0 -- -- 96
2019-12-07 20:00:00 5.4 0 Calma 4 Oeste 0 -- -- 93
2019-12-07 19:00:00 6.9 0 Calma 4 Sudeste 0 -- -- 91
2019-12-07 18:00:00 11 0 Calma 12 Norte 0 -- -- 81
2019-12-07 17:00:00 14.1 10 Norte 16 Norte 0 -- -- 69
2019-12-07 16:00:00 13.6 4 Sudeste 9 Sudeste 0 -- -- 75
2019-12-07 15:00:00 12.7 8 Sudeste 13 Este 0 -- -- 75
2019-12-07 14:00:00 12.3 5 Sudeste 9 Sudeste 0 -- -- 77
2019-12-07 13:00:00 10.1 2 Nordeste 8 Este 0 -- -- 87
2019-12-07 12:00:00 8.3 5 Sudeste 10 Sudeste 0 -- -- 93
2019-12-07 11:00:00 8.5 6 Sudeste 9 Sudeste 0 -- -- 93
2019-12-07 10:00:00 6.9 0 Calma 5 Noroeste 0 -- -- 100
2019-12-07 09:00:00 2.4 2 Noroeste 4 Oeste 0 -- -- 100
2019-12-07 08:00:00 2.1 2 Oeste 6 Noroeste 0 -- -- 99
2019-12-07 07:00:00 2.7 3 Este 5 Este 0 -- -- 98
2019-12-07 06:00:00 3.3 2 Noroeste 3 Noroeste 0 -- -- 99
2019-12-07 05:00:00 4 0 Calma 5 Noroeste 0 -- -- 98
2019-12-07 04:00:00 3.5 3 Noroeste 6 Noroeste 0 -- -- 98
2019-12-07 03:00:00 3.8 0 Calma 2 Noroeste 0 -- -- 95
2019-12-07 02:00:00 5.6 0 Calma 8 Sudeste 0 -- -- 94
2019-12-07 01:00:00 6.3 0 Calma 6 Norte 0 -- -- 89
2019-12-07 00:00:00 7.5 4 Norte 7 Norte 0 -- -- 92
2019-12-06 23:00:00 7.9 3 Norte 8 Norte 0 -- -- 91
2019-12-06 22:00:00 6.8 4 Nordeste 6 Nordeste 0 -- -- 91
2019-12-06 21:00:00 6.6 4 Norte 8 Nordeste 0 -- -- 93
2019-12-06 20:00:00 7 0 Calma 4 Nordeste 0 -- -- 88
2019-12-06 19:00:00 8.9 0 Calma 5 Nordeste 0 -- -- 82
2019-12-06 18:00:00 12.2 5 Este 15 Nordeste 0 -- -- 72
2019-12-06 17:00:00 13.9 13 Este 24 Este 0 -- -- 65
2019-12-06 16:00:00 14.4 16 Este 27 Este 0 -- -- 63
2019-12-06 15:00:00 14.7 13 Nordeste 19 Nordeste 0 -- -- 63
2019-12-06 14:00:00 13.8 11 Nordeste 19 Este 0 -- -- 68
2019-12-06 13:00:00 12.7 11 Este 23 Nordeste 0 -- -- 74
2019-12-06 12:00:00 10.6 10 Este 20 Nordeste 0 -- -- 83
2019-12-06 11:00:00 8.2 6 Este 22 Nordeste 0 -- -- 94
2019-12-06 10:00:00 6.9 12 Este 23 Este 0 -- -- 97
2019-12-06 09:00:00 6.3 6 Este 15 Este 0 -- -- 97
2019-12-06 08:00:00 5.8 0 Calma 8 Este 0 -- -- 97
2019-12-06 07:00:00 6.1 5 Este 16 Este 0 -- -- 96
2019-12-06 06:00:00 6.1 6 Nordeste 14 Este 0 -- -- 96
2019-12-06 05:00:00 6.5 6 Nordeste 12 Este 0 -- -- 95
2019-12-06 04:00:00 6.9 8 Este 16 Este 0 -- -- 95
2019-12-06 03:00:00 6.7 3 Sudeste 9 Este 0 -- -- 95
2019-12-06 02:00:00 7.6 6 Este 16 Este 0 -- -- 92
2019-12-06 01:00:00 8.1 9 Sudeste 25 Este 0 -- -- 90
2019-12-06 00:00:00 8.6 17 Este 27 Nordeste 0 -- -- 89
2019-12-05 23:00:00 8.8 11 Este 19 Nordeste 0 -- -- 87
2019-12-05 22:00:00 9.2 12 Nordeste 21 Nordeste 0 -- -- 85
2019-12-05 21:00:00 9.3 8 Este 15 Este 0 -- -- 85
2019-12-05 20:00:00 10.1 10 Nordeste 19 Nordeste 0 -- -- 81
2019-12-05 19:00:00 11 12 Nordeste 21 Este 0 -- -- 76
2019-12-05 18:00:00 11.4 14 Nordeste 23 Nordeste 0 -- -- 72
2019-12-05 17:00:00 11.6 18 Nordeste 28 Nordeste 0 -- -- 69
2019-12-05 16:00:00 11.5 17 Nordeste 29 Nordeste 0 -- -- 71
2019-12-05 15:00:00 12.3 17 Nordeste 35 Este 0 -- -- 67
2019-12-05 14:00:00 12.2 18 Este 38 Este 0 -- -- 69
2019-12-05 13:00:00 12.5 23 Nordeste 37 Este 0 -- -- 67
2019-12-05 12:00:00 11.4 21 Este 30 Este 0 -- -- 71
2019-12-05 11:00:00 10.6 18 Este 28 Este 0 -- -- 74
2019-12-05 10:00:00 9.5 12 Nordeste 21 Nordeste 0 -- -- 80
2019-12-05 09:00:00 7.8 11 Nordeste 15 Nordeste 0 -- -- 88
2019-12-05 08:00:00 5.9 7 Nordeste 11 Nordeste 0 -- -- 96
2019-12-05 07:00:00 5.7 0 Calma 4 Noroeste 0 -- -- 98
2019-12-05 06:00:00 5.6 2 Noroeste 8 Noroeste 0 -- -- 96
2019-12-05 05:00:00 6.4 4 Noroeste 12 Norte 0 -- -- 96
2019-12-05 04:00:00 7.4 4 Norte 10 Noroeste 0 -- -- 93
2019-12-05 03:00:00 8 4 Noroeste 8 Noroeste 0 -- -- 96
2019-12-05 02:00:00 8.9 0 Calma 6 Norte 0 -- -- 91
2019-12-05 01:00:00 9.2 0 Calma 6 Noroeste 0 -- -- 89
2019-12-05 00:00:00 9.1 3 Norte 8 Norte 0 -- -- 89
2019-12-04 23:00:00 9.3 6 Norte 12 Norte 0 -- -- 88
2019-12-04 22:00:00 9.2 6 Norte 12 Norte 0 -- -- 88
2019-12-04 21:00:00 9.4 4 Noroeste 13 Norte 0 -- -- 87
2019-12-04 20:00:00 10 10 Norte 16 Norte 0 -- -- 82
2019-12-04 19:00:00 10.3 9 Norte 16 Norte 0 -- -- 78
2019-12-04 18:00:00 11.1 9 Norte 16 Norte 0 -- -- 73
2019-12-04 17:00:00 11.5 5 Noroeste 12 Norte 0 -- -- 71
2019-12-04 16:00:00 10.9 6 Noroeste 10 Noroeste 0 -- -- 73
2019-12-04 15:00:00 10.9 6 Norte 13 Norte 0 -- -- 73
2019-12-04 14:00:00 11.4 4 Nordeste 10 Nordeste 0 -- -- 72
2019-12-04 13:00:00 10.9 3 Sudeste 10 Sudoeste 0 -- -- 73
2019-12-04 12:00:00 9.9 7 Este 12 Sudeste 0 -- -- 77
2019-12-04 11:00:00 9.4 2 Nordeste 5 Noroeste 0 -- -- 77
2019-12-04 10:00:00 7 0 Calma 5 Este 0 -- -- 87
2019-12-04 09:00:00 6.7 5 Este 13 Este 0 -- -- 89
2019-12-04 08:00:00 6.9 5 Este 13 Este 0 -- -- 86
2019-12-04 07:00:00 7 5 Nordeste 13 Este 0 -- -- 84
2019-12-04 06:00:00 7.2 8 Este 13 Este 0 -- -- 82
2019-12-04 05:00:00 7.5 4 Este 14 Este 0 -- -- 82
2019-12-04 04:00:00 7.4 5 Este 18 Nordeste 0 -- -- 85
2019-12-04 03:00:00 7.7 8 Este 19 Este 0 -- -- 88
2019-12-04 02:00:00 8.2 10 Este 18 Este 0 -- -- 87
2019-12-04 01:00:00 8.4 6 Este 13 Este 0 -- -- 88
2019-12-04 00:00:00 8.7 6 Este 15 Este 0 -- -- 87
2019-12-03 23:00:00 9 5 Nordeste 10 Nordeste 0 -- -- 85
2019-12-03 22:00:00 9.2 7 Este 14 Este 0 -- -- 84
2019-12-03 21:00:00 9.5 7 Nordeste 15 Nordeste 0 -- -- 83
2019-12-03 20:00:00 9.7 10 Nordeste 15 Nordeste 0 -- -- 82
2019-12-03 19:00:00 9.9 8 Nordeste 21 Este 0 -- -- 81
2019-12-03 18:00:00 10.5 11 Nordeste 22 Nordeste 0 -- -- 78
2019-12-03 17:00:00 11.3 17 Nordeste 28 Nordeste 0 -- -- 74
2019-12-03 16:00:00 12.2 16 Nordeste 26 Nordeste 0 -- -- 71
2019-12-03 15:00:00 12.5 17 Nordeste 31 Este 0 -- -- 70
2019-12-03 14:00:00 11.9 18 Nordeste 34 Nordeste 0 -- -- 72
2019-12-03 13:00:00 12 16 Nordeste 34 Nordeste 0 -- -- 73
2019-12-03 12:00:00 10.2 19 Este 39 Nordeste 0 -- -- 78
2019-12-03 11:00:00 10 23 Nordeste 37 Nordeste 0 -- -- 80
2019-12-03 10:00:00 9.2 15 Nordeste 27 Nordeste 0 -- -- 81
2019-12-03 09:00:00 7.9 11 Nordeste 21 Nordeste 0 -- -- 85
2019-12-03 08:00:00 7.6 14 Nordeste 25 Nordeste 0 -- -- 85
2019-12-03 07:00:00 7.3 5 Nordeste 31 Nordeste 0 -- -- 85
2019-12-03 06:00:00 7.7 15 Nordeste 24 Nordeste 0 -- -- 83
2019-12-03 05:00:00 7.9 18 Nordeste 26 Este 0 -- -- 82
2019-12-03 04:00:00 7.7 6 Norte 25 Este 0 -- -- 83
2019-12-03 03:00:00 8.3 18 Nordeste 29 Nordeste 0 -- -- 84
2019-12-03 02:00:00 8.2 16 Este 27 Este 0 -- -- 85
2019-12-03 01:00:00 8.6 19 Este 33 Este 0 -- -- 85
2019-12-03 00:00:00 9 19 Este 36 Nordeste 0 -- -- 84
2019-12-02 23:00:00 9.2 16 Este 32 Este 0 -- -- 83
2019-12-02 22:00:00 9.4 17 Este 33 Este 0 -- -- 82
2019-12-02 21:00:00 10 21 Nordeste 36 Nordeste 0 -- -- 81
2019-12-02 20:00:00 9.6 17 Nordeste 29 Este 0 -- -- 83
2019-12-02 19:00:00 9.8 18 Este 31 Nordeste 0 -- -- 82
2019-12-02 18:00:00 10.4 17 Este 35 Este 0 -- -- 80
2019-12-02 17:00:00 10.4 21 Este 46 Nordeste 0 -- -- 80
2019-12-02 16:00:00 11.7 26 Este 44 Nordeste 0 -- -- 74
2019-12-02 15:00:00 11.5 23 Nordeste 42 Nordeste 0 -- -- 73
2019-12-02 14:00:00 11.3 28 Este 44 Este 0 -- -- 73
2019-12-02 13:00:00 11.1 25 Nordeste 40 Este 0 -- -- 76
2019-12-02 12:00:00 10.3 25 Este 44 Este 0 -- -- 84
2019-12-02 11:00:00 9.4 22 Este 43 Este 0 -- -- 90
2019-12-02 10:00:00 8.8 21 Este 39 Nordeste 0 -- -- 92
2019-12-02 09:00:00 8 16 Este 29 Este 0 -- -- 96
2019-12-02 08:00:00 7.7 16 Este 25 Este 0 -- -- 95
2019-12-02 07:00:00 7.6 18 Este 27 Este 0 -- -- 95
2019-12-02 06:00:00 7.6 12 Nordeste 21 Nordeste 0 -- -- 96
2019-12-02 05:00:00 7.6 9 Este 20 Este 0.2 -- -- 95
2019-12-02 04:00:00 8 10 Este 19 Este 1.4 -- -- 97
2019-12-02 03:00:00 7.9 6 Nordeste 10 Nordeste 0 -- -- 97
2019-12-02 02:00:00 8.1 6 Nordeste 13 Nordeste 0.2 -- -- 98
2019-12-02 01:00:00 8.2 5 Nordeste 16 Este 0.2 -- -- 98
2019-12-02 00:00:00 8.3 8 Este 16 Este 0.2 -- -- 98
2019-12-01 23:00:00 8.4 6 Este 11 Este 0 -- -- 97
2019-12-01 22:00:00 8.6 6 Este 9 Este 0 -- -- 95
2019-12-01 21:00:00 8.9 2 Este 7 Norte 0.8 -- -- 96
2019-12-01 20:00:00 9.2 3 Oeste 25 Oeste 0.4 -- -- 94
2019-12-01 19:00:00 10.3 11 Oeste 21 Oeste 0 -- -- 83
2019-12-01 18:00:00 10.7 9 Oeste 23 Oeste 0 -- -- 83
2019-12-01 17:00:00 11.5 10 Oeste 31 Oeste 0 -- -- 80
2019-12-01 16:00:00 11.6 15 Sudoeste 22 Sudoeste 0 -- -- 83
2019-12-01 15:00:00 10.5 10 Sudoeste 30 Sudoeste 0 -- -- 90
2019-12-01 14:00:00 10.3 9 Oeste 37 Sudoeste 0.6 -- -- 95
2019-12-01 13:00:00 10.8 19 Sudoeste 32 Sudoeste 0 -- -- 89
2019-12-01 12:00:00 10.3 19 Sudoeste 33 Sur 0 -- -- 94
2019-12-01 11:00:00 9.3 15 Sur 28 Sudoeste 0.2 -- -- 95
2019-12-01 10:00:00 8.5 15 Sudoeste 27 Sur 0 -- -- 98
2019-12-01 09:00:00 8.1 12 Sur 23 Sur 0.2 -- -- 97
2019-12-01 08:00:00 7.9 8 Sur 17 Sudoeste 0 -- -- 99
2019-12-01 07:00:00 7.2 6 Oeste 11 Sudoeste 0 -- -- 100
2019-12-01 06:00:00 7.1 5 Sudoeste 14 Sudoeste 0 -- -- 99
2019-12-01 05:00:00 6.4 10 Sudoeste 14 Sudoeste 0 -- -- 98
2019-12-01 04:00:00 7.4 8 Sudoeste 14 Oeste 0 -- -- 96
2019-12-01 03:00:00 8 8 Oeste 18 Oeste 0 -- -- 95
2019-12-01 02:00:00 9.5 8 Oeste 21 Oeste 0 -- -- 93
2019-12-01 01:00:00 9.9 6 Noroeste 22 Oeste 0 -- -- 93
2019-12-01 00:00:00 10.1 10 Oeste 25 Noroeste 0.2 -- -- 93
2019-11-30 23:00:00 10.3 13 Noroeste 36 Oeste 0.2 -- -- 94
2019-11-30 22:00:00 11.6 21 Oeste 40 Oeste 0.6 -- -- 93
2019-11-30 21:00:00 12.7 13 Sudoeste 22 Sudoeste 0 -- -- 86
2019-11-30 20:00:00 12.9 14 Sudoeste 25 Sudoeste 0 -- -- 81
2019-11-30 19:00:00 13.1 12 Sudoeste 26 Sudoeste 0 -- -- 80
2019-11-30 18:00:00 13.2 17 Sudoeste 28 Oeste 0 -- -- 79
2019-11-30 17:00:00 13.9 13 Oeste 30 Oeste 0 -- -- 76
2019-11-30 16:00:00 15 16 Oeste 32 Oeste 0 -- -- 71
2019-11-30 15:00:00 14.1 21 Oeste 31 Oeste 0 -- -- 77
2019-11-30 14:00:00 14 15 Oeste 23 Oeste 0 -- -- 82
2019-11-30 13:00:00 14.3 10 Oeste 17 Oeste 0 -- -- 82
2019-11-30 12:00:00 13.7 6 Sudoeste 12 Oeste 0 -- -- 84
2019-11-30 11:00:00 12.4 5 Oeste 9 Sudoeste 0 -- -- 92
2019-11-30 10:00:00 10.5 2 Sudeste 4 Sudeste 0 -- -- 99
2019-11-30 09:00:00 9.2 2 Sudeste 6 Noroeste 0 -- -- 99
2019-11-30 08:00:00 8.8 4 Oeste 7 Oeste 0 -- -- 98
2019-11-30 07:00:00 10 2 Sudeste 5 Este 0 -- -- 96
2019-11-30 06:00:00 10.5 0 Calma 3 Norte 0 -- -- 97
2019-11-30 05:00:00 10.4 0 Calma 6 Norte 0 -- -- 98
2019-11-30 04:00:00 10 3 Noroeste 4 Noroeste 0 -- -- 98
2019-11-30 03:00:00 9.8 0 Calma 4 Este 0 -- -- 98
2019-11-30 02:00:00 9.6 2 Nordeste 6 Este 0 -- -- 98
2019-11-30 01:00:00 9 0 Calma 8 Noroeste 0 -- -- 98
2019-11-30 00:00:00 7.5 0 Calma 4 Oeste 0 -- -- 97
2019-11-29 23:00:00 8.2 2 Oeste 5 Oeste 0 -- -- 96
2019-11-29 22:00:00 8.6 3 Noroeste 4 Oeste 0 -- -- 93
2019-11-29 21:00:00 10.5 2 Norte 3 Norte 0 -- -- 92
2019-11-29 20:00:00 11.9 0 Calma 4 Noroeste 0 -- -- 86
2019-11-29 19:00:00 12.7 3 Noroeste 5 Noroeste 0 -- -- 83
2019-11-29 18:00:00 15.1 3 Noroeste 13 Oeste 0 -- -- 73
2019-11-29 17:00:00 15.9 5 Noroeste 14 Oeste 0 -- -- 68
2019-11-29 16:00:00 15.8 11 Oeste 21 Noroeste 0 -- -- 68
2019-11-29 15:00:00 15.6 11 Oeste 15 Oeste 0 -- -- 71
2019-11-29 14:00:00 15.5 7 Oeste 17 Oeste 0 -- -- 70
2019-11-29 13:00:00 15.4 10 Oeste 16 Oeste 0 -- -- 71
2019-11-29 12:00:00 13.7 6 Sudoeste 13 Sudoeste 0 -- -- 83
2019-11-29 11:00:00 12.4 9 Sudoeste 13 Sudoeste 0 -- -- 87
2019-11-29 10:00:00 11.3 7 Oeste 14 Sudoeste 0 -- -- 91
2019-11-29 09:00:00 10.8 9 Oeste 12 Sudoeste 0 -- -- 92
2019-11-29 08:00:00 11 2 Sur 9 Sur 0 -- -- 91
2019-11-29 07:00:00 11.1 2 Sudeste 18 Oeste 0 -- -- 92
2019-11-29 06:00:00 11.4 16 Oeste 22 Oeste 0 -- -- 90
2019-11-29 05:00:00 11 13 Oeste 22 Oeste 0 -- -- 93
2019-11-29 04:00:00 11.1 8 Sudoeste 12 Sudoeste 0 -- -- 92
2019-11-29 03:00:00 11.4 4 Sudoeste 9 Sudoeste 0 -- -- 92
2019-11-29 02:00:00 11.4 8 Sudoeste 14 Sudoeste 0 -- -- 92
2019-11-29 01:00:00 11.5 6 Sudoeste 14 Sudoeste 0 -- -- 91
2019-11-29 00:00:00 11.6 10 Sudoeste 14 Sur 0 -- -- 90
2019-11-28 23:00:00 11.1 2 Oeste 10 Sudoeste 0 -- -- 94
2019-11-28 22:00:00 11.5 8 Sudoeste 13 Sudoeste 0 -- -- 89
2019-11-28 21:00:00 12.5 5 Sudoeste 11 Norte 0 -- -- 86
2019-11-28 20:00:00 13.3 2 Norte 8 Sur 0 -- -- 78
2019-11-28 19:00:00 13.5 3 Oeste 14 Oeste 0 -- -- 77
2019-11-28 18:00:00 13.9 8 Oeste 23 Oeste 0 -- -- 72
2019-11-28 17:00:00 14.5 15 Oeste 24 Noroeste 0 -- -- 68
2019-11-28 16:00:00 15 14 Oeste 22 Oeste 0 -- -- 67
2019-11-28 15:00:00 14.5 14 Oeste 24 Sudoeste 0 -- -- 72
2019-11-28 14:00:00 14.4 12 Sudoeste 22 Sudoeste 0 -- -- 72
2019-11-28 13:00:00 13.9 12 Sudoeste 23 Sudoeste 0 -- -- 76
2019-11-28 12:00:00 13.2 12 Sudoeste 22 Sudoeste 0 -- -- 81
2019-11-28 11:00:00 11.7 9 Sudoeste 19 Sudoeste 0 -- -- 89
2019-11-28 10:00:00 10.9 5 Sudoeste 10 Sudoeste 0 -- -- 95
2019-11-28 09:00:00 9.8 3 Sudoeste 6 Sudoeste 0 -- -- 97
2019-11-28 08:00:00 9.4 3 Sudoeste 6 Oeste 0 -- -- 96
2019-11-28 07:00:00 9.5 0 Calma 8 Sur 0 -- -- 95
2019-11-28 06:00:00 9 6 Sur 10 Sur 0 -- -- 96
2019-11-28 05:00:00 8.5 0 Calma 5 Oeste 0 -- -- 94
2019-11-28 04:00:00 9.1 0 Calma 7 Sudeste 0 -- -- 95
2019-11-28 03:00:00 9.1 6 Sudoeste 11 Sudoeste 0 -- -- 95
2019-11-28 02:00:00 9.1 8 Sudoeste 11 Sudoeste 0 -- -- 96
2019-11-28 01:00:00 8.4 9 Sudoeste 10 Sudoeste 0 -- -- 95
2019-11-28 00:00:00 8.2 6 Oeste 11 Oeste 0 -- -- 94
2019-11-27 23:00:00 9.9 6 Oeste 18 Noroeste 0 -- -- 89
2019-11-27 22:00:00 11.2 8 Oeste 16 Oeste 0 -- -- 82
2019-11-27 21:00:00 11.5 6 Oeste 14 Oeste 0 -- -- 80
2019-11-27 20:00:00 10.9 10 Oeste 18 Oeste 0 -- -- 81
2019-11-27 19:00:00 12.2 7 Oeste 15 Oeste 0 -- -- 74
2019-11-27 18:00:00 13 11 Oeste 27 Oeste 0 -- -- 70
2019-11-27 17:00:00 13.8 15 Oeste 33 Noroeste 0 -- -- 67
2019-11-27 16:00:00 13.8 22 Oeste 35 Oeste 0 -- -- 70
2019-11-27 15:00:00 13.9 19 Oeste 28 Oeste 0 -- -- 69
2019-11-27 14:00:00 14.9 23 Oeste 42 Oeste 0 -- -- 67
2019-11-27 06:00:00 -- -- -- -- -- -- -- -- --
2019-11-27 05:00:00 -- -- -- -- -- -- -- -- --
2019-11-27 04:00:00 11.7 12 Oeste 28 Oeste 0.2 -- -- 95
2019-11-27 03:00:00 11.9 10 Sudoeste 21 Noroeste 0 -- -- 91
2019-11-27 02:00:00 11.3 8 Sudoeste 32 Sudoeste 0 -- -- 94
2019-11-27 01:00:00 12.5 10 Sudoeste 36 Sudoeste 0 -- -- 92
2019-11-27 00:00:00 13.2 7 Noroeste 40 Oeste 0 -- -- 92
2019-11-26 23:00:00 13.5 10 Oeste 27 Oeste 0 -- -- 97
2019-11-26 22:00:00 13.4 6 Oeste 30 Sudoeste 0.8 -- -- 96
2019-11-26 21:00:00 13.7 15 Sudoeste 33 Sudoeste 0.4 -- -- 93
2019-11-26 20:00:00 14 14 Sur 30 Sur 0.2 -- -- 91
2019-11-26 19:00:00 14.5 8 Sur 26 Sur 0 -- -- 86
2019-11-26 18:00:00 14.7 15 Sudoeste 29 Sudoeste 0 -- -- 84
2019-11-26 17:00:00 15.5 20 Sudoeste 37 Sudoeste 0 -- -- 80
2019-11-26 16:00:00 15.7 26 Sudoeste 39 Sudoeste 0 -- -- 80
2019-11-26 15:00:00 15.9 26 Sudoeste 42 Sudoeste 0 -- -- 86
2019-11-26 14:00:00 14.6 13 Sur 28 Sudoeste 0 -- -- 94
2019-11-26 13:00:00 13.9 14 Sur 30 Sudoeste 0 -- -- 95
2019-11-26 12:00:00 13.5 16 Sudoeste 24 Sur 0.4 -- -- 97
2019-11-26 11:00:00 12.8 12 Sudoeste 26 Sudoeste 0 -- -- 97
2019-11-26 10:00:00 12.1 5 Sur 20 Sudoeste 0 -- -- 95
2019-11-26 09:00:00 11.4 3 Sur 14 Sudoeste 0 -- -- 96
2019-11-26 08:00:00 11 10 Sudoeste 15 Sudoeste 0 -- -- 97
2019-11-26 07:00:00 10.8 7 Sudoeste 9 Oeste 0 -- -- 98
2019-11-26 06:00:00 10.8 0 Calma 9 Sudoeste 0 -- -- 98
2019-11-26 05:00:00 10.8 0 Calma 6 Oeste 0 -- -- 98
2019-11-26 04:00:00 10.8 5 Sudoeste 9 Oeste 0 -- -- 98
2019-11-26 03:00:00 10 9 Sudoeste 12 Sudoeste 0 -- -- 98
2019-11-26 02:00:00 11.7 9 Oeste 17 Oeste 0 -- -- 93
2019-11-26 01:00:00 12.6 11 Oeste 17 Oeste 0 -- -- 93
2019-11-26 00:00:00 13 14 Oeste 19 Oeste 0 -- -- 90
2019-11-25 23:00:00 13.5 13 Oeste 19 Oeste 0 -- -- 89
2019-11-25 22:00:00 13 10 Sudoeste 12 Oeste 0 -- -- 89
2019-11-25 21:00:00 13 4 Oeste 10 Oeste 0 -- -- 90
2019-11-25 20:00:00 12.9 8 Oeste 10 Oeste 0 -- -- 88
2019-11-25 19:00:00 13.3 8 Oeste 23 Oeste 0 -- -- 85
2019-11-25 18:00:00 14.9 9 Noroeste 17 Oeste 0 -- -- 81
2019-11-25 17:00:00 16.2 8 Noroeste 28 Noroeste 0 -- -- 76
2019-11-25 16:00:00 16.6 20 Noroeste 39 Oeste 0 -- -- 70
2019-11-25 15:00:00 16.8 24 Oeste 43 Noroeste 0 -- -- 78
2019-11-25 14:00:00 15.4 25 Oeste 39 Oeste 0 -- -- 86
2019-11-25 13:00:00 14.4 11 Oeste 27 Sudoeste 0 -- -- 96
2019-11-25 12:00:00 13.6 14 Sudoeste 27 Sudoeste 0 -- -- 96
2019-11-25 11:00:00 12.7 15 Sudoeste 23 Sudoeste 0.2 -- -- 97
2019-11-25 10:00:00 12.2 12 Sudoeste 23 Sudoeste 0.2 -- -- 97
2019-11-25 09:00:00 11.7 11 Sur 22 Sudoeste 0.6 -- -- 98
2019-11-25 08:00:00 10.9 3 Sudoeste 17 Sudoeste 1.2 -- -- 98
2019-11-25 07:00:00 10.8 5 Sudeste 18 Sur 1.2 -- -- 97
2019-11-25 06:00:00 10.7 7 Sudoeste 23 Sudoeste 0.2 -- -- 95
2019-11-25 05:00:00 10.8 17 Sudoeste 25 Sur 0.2 -- -- 94
2019-11-25 04:00:00 10 11 Sur 17 Sudoeste 0 -- -- 96
2019-11-25 03:00:00 9.7 7 Sur 12 Sur 0.6 -- -- 95
2019-11-25 02:00:00 10.1 9 Sudoeste 19 Sudoeste 0 -- -- 87
2019-11-25 01:00:00 9.9 8 Sudoeste 17 Sur 0 -- -- 87
2019-11-25 00:00:00 9.9 5 Sur 12 Sudoeste 0 -- -- 85
2019-11-24 23:00:00 9.6 5 Sudoeste 14 Sudoeste 0 -- -- 88
2019-11-24 22:00:00 9.9 11 Sudoeste 15 Sudoeste 0 -- -- 86
2019-11-24 21:00:00 11.4 10 Oeste 28 Oeste 0 -- -- 78
2019-11-24 20:00:00 11.2 13 Oeste 26 Oeste 0 -- -- 78
2019-11-24 19:00:00 11.2 0 Calma 12 Noroeste 0 -- -- 79
2019-11-24 18:00:00 11.5 4 Noroeste 27 Oeste 0 -- -- 75
2019-11-24 17:00:00 12.2 16 Oeste 26 Oeste 0 -- -- 72
2019-11-24 16:00:00 12.2 19 Oeste 27 Oeste 0 -- -- 71
2019-11-24 15:00:00 12.5 20 Oeste 31 Oeste 0 -- -- 68
2019-11-24 14:00:00 12.6 18 Oeste 30 Oeste 0 -- -- 70
2019-11-24 13:00:00 10.7 16 Noroeste 27 Oeste 0 -- -- 76
2019-11-24 12:00:00 10.5 17 Noroeste 26 Oeste 0 -- -- 77
2019-11-24 11:00:00 9 13 Oeste 29 Oeste 0 -- -- 88
2019-11-24 10:00:00 7.9 17 Oeste 30 Oeste 0 -- -- 94
2019-11-24 09:00:00 6.8 15 Noroeste 26 Oeste 0 -- -- 98
2019-11-24 08:00:00 6.3 10 Noroeste 26 Oeste 0 -- -- 96
2019-11-24 07:00:00 6 11 Noroeste 21 Noroeste 0 -- -- 93
2019-11-24 06:00:00 6.3 7 Noroeste 17 Noroeste 0 -- -- 89
2019-11-24 05:00:00 6.9 9 Noroeste 27 Noroeste 0 -- -- 86
2019-11-24 04:00:00 7 12 Noroeste 25 Noroeste 0 -- -- 84
2019-11-24 03:00:00 7.6 14 Noroeste 31 Noroeste 0 -- -- 83
2019-11-24 02:00:00 7.4 21 Noroeste 38 Noroeste 0 -- -- 86
2019-11-24 01:00:00 7.4 30 Oeste 41 Oeste 0 -- -- 88
2019-11-24 00:00:00 7.8 26 Oeste 35 Oeste 0 -- -- 88
2019-11-23 23:00:00 7.8 21 Oeste 36 Oeste 0 -- -- 86
2019-11-23 22:00:00 8.1 21 Oeste 31 Oeste 0 -- -- 85
2019-11-23 21:00:00 8.7 25 Oeste 35 Oeste 0 -- -- 81
2019-11-23 20:00:00 8.8 15 Oeste 29 Noroeste 0 -- -- 79
2019-11-23 19:00:00 10 22 Oeste 33 Oeste 0 -- -- 74
2019-11-23 18:00:00 10.9 17 Noroeste 34 Noroeste 0 -- -- 70
2019-11-23 17:00:00 11.6 18 Noroeste 38 Noroeste 0 -- -- 66
2019-11-23 16:00:00 12 19 Noroeste 44 Noroeste 0 -- -- 64
2019-11-23 15:00:00 12.2 24 Noroeste 50 Noroeste 0 -- -- 67
2019-11-23 14:00:00 11.6 34 Noroeste 50 Noroeste 0 -- -- 68
2019-11-23 13:00:00 11 33 Noroeste 51 Noroeste 0 -- -- 68
2019-11-23 12:00:00 10.4 32 Noroeste 53 Noroeste 0 -- -- 77
2019-11-23 11:00:00 9.5 34 Noroeste 51 Noroeste 0 -- -- 79
2019-11-23 10:00:00 9 27 Noroeste 45 Oeste 0 -- -- 83
2019-11-23 09:00:00 8.4 27 Oeste 49 Noroeste 0 -- -- 87
2019-11-23 08:00:00 8.3 30 Noroeste 49 Oeste 0 -- -- 87
2019-11-23 07:00:00 8.2 27 Noroeste 45 Noroeste 0 -- -- 87
2019-11-23 06:00:00 8.7 26 Noroeste 44 Oeste 0 -- -- 87
2019-11-23 05:00:00 8.8 24 Noroeste 43 Noroeste 0 -- -- 90
2019-11-23 04:00:00 8.9 24 Noroeste 60 Noroeste 0.8 -- -- 91
2019-11-23 03:00:00 9.6 34 Noroeste 55 Oeste 0 -- -- 86
2019-11-23 02:00:00 9.4 30 Noroeste 58 Oeste 1.6 -- -- 90
2019-11-23 01:00:00 10.4 21 Oeste 45 Noroeste 0 -- -- 84
2019-11-23 00:00:00 10.7 30 Oeste 58 Oeste 0 -- -- 82
2019-11-22 23:00:00 10.6 30 Oeste 46 Oeste 0 -- -- 86
2019-11-22 22:00:00 11.2 23 Oeste 41 Oeste 0.2 -- -- 89
2019-11-22 21:00:00 11.7 27 Oeste 40 Oeste 0 -- -- 83
2019-11-22 20:00:00 12.1 30 Oeste 50 Oeste 0 -- -- 80
2019-11-22 19:00:00 12.8 31 Oeste 50 Oeste 0 -- -- 81
2019-11-22 18:00:00 12.7 17 Oeste 45 Noroeste 0 -- -- 86
2019-11-22 17:00:00 14 37 Oeste 53 Noroeste 9.8 -- -- 92
2019-11-22 16:00:00 14.1 34 Oeste 70 Sudoeste 1.2 -- -- 92
2019-11-22 15:00:00 13.6 26 Sudoeste 42 Sudoeste 2.2 -- -- 95
2019-11-22 14:00:00 13.2 24 Sudoeste 42 Sudoeste 2.4 -- -- 96
2019-11-22 13:00:00 13 23 Sudoeste 45 Sur 0 -- -- 94
2019-11-22 12:00:00 12.6 24 Sudoeste 41 Sur 1.4 -- -- 95
2019-11-22 11:00:00 11.8 16 Sur 39 Sudeste 0.8 -- -- 96
2019-11-22 10:00:00 11.3 13 Sur 45 Sur 0.4 -- -- 96
2019-11-22 09:00:00 10.5 12 Sur 26 Sur 0 -- -- 96
2019-11-22 08:00:00 10 8 Sudeste 21 Sudoeste 0.4 -- -- 96
2019-11-22 07:00:00 10 6 Sur 20 Sur 0.6 -- -- 96
2019-11-22 06:00:00 9.9 9 Sur 22 Sudeste 0 -- -- 96
2019-11-22 05:00:00 9.9 6 Sur 18 Sudoeste 0 -- -- 96
2019-11-22 04:00:00 9.8 8 Sudoeste 19 Sudoeste 0 -- -- 96
2019-11-22 03:00:00 9.8 6 Sur 16 Sur 0 -- -- 98
2019-11-22 02:00:00 9.9 6 Sur 14 Sur 0 -- -- 99
2019-11-22 01:00:00 9.9 5 Sur 13 Sur 0.2 -- -- 100
2019-11-22 00:00:00 9.5 7 Sudoeste 11 Sur 0 -- -- 100
2019-11-21 23:00:00 9.4 3 Sudoeste 12 Sudoeste 0 -- -- 99
2019-11-21 22:00:00 9.5 9 Sudoeste 13 Sudoeste 0 -- -- 99
2019-11-21 21:00:00 9.8 8 Sudoeste 17 Sudoeste 0 -- -- 98
2019-11-21 20:00:00 10.7 10 Sur 16 Sudoeste 0 -- -- 97
2019-11-21 19:00:00 11.1 3 Sudoeste 7 Sudeste 0 -- -- 96
2019-11-21 18:00:00 11.3 4 Sudeste 10 Sur 0.2 -- -- 94
2019-11-21 17:00:00 11.8 4 Sur 8 Oeste 0 -- -- 92
2019-11-21 16:00:00 11.5 4 Oeste 13 Sudoeste 0.2 -- -- 91
2019-11-21 15:00:00 11.1 9 Sudoeste 18 Sudoeste 0.6 -- -- 94
2019-11-21 14:00:00 10.7 13 Sudoeste 19 Sudoeste 1.6 -- -- 96
2019-11-21 13:00:00 10.9 9 Oeste 20 Sudoeste 0.4 -- -- 94
2019-11-21 12:00:00 10.5 12 Sudoeste 19 Sudoeste 0.4 -- -- 96
2019-11-21 11:00:00 10 11 Sur 17 Sudoeste 0 -- -- 97
2019-11-21 10:00:00 9.4 4 Sudoeste 14 Sur 0 -- -- 98
2019-11-21 09:00:00 9 7 Sur 20 Sur 0 -- -- 97
2019-11-21 08:00:00 8.5 6 Sur 12 Sudoeste 0 -- -- 97
2019-11-21 07:00:00 8.3 5 Sur 14 Sur 0 -- -- 97
2019-11-21 06:00:00 8 3 Sudoeste 9 Sudoeste 0 -- -- 97
2019-11-21 05:00:00 8.3 3 Sur 13 Sudoeste 0 -- -- 97
2019-11-21 04:00:00 8.2 8 Sudoeste 12 Sudoeste 0 -- -- 97
2019-11-21 03:00:00 8.2 5 Sur 15 Sudoeste 0 -- -- 97
2019-11-21 02:00:00 8.1 11 Sudoeste 17 Sur 0 -- -- 98
2019-11-21 01:00:00 8 8 Sudoeste 15 Sudoeste 0 -- -- 98
2019-11-21 00:00:00 8 9 Sudoeste 21 Sudoeste 0.2 -- -- 97
2019-11-20 23:00:00 8.1 10 Sudoeste 17 Norte 2.6 -- -- 98
2019-11-20 22:00:00 7.7 2 Sur 17 Sudoeste 0.4 -- -- 99
2019-11-20 21:00:00 7.8 11 Sudoeste 21 Sudoeste 0 -- -- 99
2019-11-20 20:00:00 7.5 16 Sudoeste 22 Sudoeste 0 -- -- 99
2019-11-20 19:00:00 7.9 15 Sudoeste 22 Sudoeste 0 -- -- 98
2019-11-20 18:00:00 8.1 12 Sudoeste 21 Sudoeste 0 -- -- 98
2019-11-20 17:00:00 8.1 10 Sudoeste 21 Sudoeste 0.2 -- -- 98
2019-11-20 16:00:00 7.8 7 Sudoeste 16 Sur 0 -- -- 97
2019-11-20 15:00:00 7 2 Sudeste 9 Sudeste 0 -- -- 95
2019-11-20 14:00:00 6.4 6 Sudeste 12 Sudeste 1 -- -- 94
2019-11-20 13:00:00 6.5 3 Sur 18 Sur 2.2 -- -- 93
2019-11-20 12:00:00 6.4 10 Sur 21 Sudeste 1.2 -- -- 94
2019-11-20 11:00:00 6.3 10 Sur 17 Sur 2.6 -- -- 98
2019-11-20 10:00:00 5.3 2 Norte 5 Oeste 0.8 -- -- 99
2019-11-20 09:00:00 4.4 0 Calma 4 Noroeste 0 -- -- 99
2019-11-20 08:00:00 3.3 0 Calma 4 Noroeste 0 -- -- 99
2019-11-20 07:00:00 1.9 3 Noroeste 6 Noroeste 0 -- -- 99
2019-11-20 06:00:00 1.4 0 Calma 4 Oeste 0 -- -- 98
2019-11-20 05:00:00 2.2 0 Calma 4 Norte 0 -- -- 99
2019-11-20 04:00:00 1.7 3 Noroeste 4 Noroeste 0 -- -- 98
2019-11-20 03:00:00 2.1 0 Calma 4 Oeste 0 -- -- 97
2019-11-20 02:00:00 2.5 2 Oeste 4 Noroeste 0 -- -- 97
2019-11-20 01:00:00 3 3 Noroeste 4 Noroeste 0 -- -- 96
2019-11-20 00:00:00 4.1 2 Norte 5 Oeste 0 -- -- 95
2019-11-19 23:00:00 4.9 0 Calma 5 Oeste 0 -- -- 93
2019-11-19 22:00:00 5.5 4 Noroeste 6 Noroeste 0 -- -- 93
2019-11-19 21:00:00 6.2 0 Calma 3 Noroeste 0 -- -- 89
2019-11-19 20:00:00 7 0 Calma 6 Sur 0 -- -- 84
2019-11-19 19:00:00 8.1 5 Sur 6 Sur 0 -- -- 78
2019-11-19 18:00:00 9.2 5 Sur 6 Sur 0 -- -- 74
2019-11-19 17:00:00 11.7 4 Sur 11 Sudoeste 0 -- -- 61
2019-11-19 16:00:00 12.5 4 Sur 12 Oeste 0 -- -- 58
2019-11-19 15:00:00 11.8 8 Oeste 17 Oeste 0 -- -- 58
2019-11-19 14:00:00 10.6 8 Oeste 13 Oeste 0 -- -- 69
2019-11-19 13:00:00 9.8 3 Sudoeste 7 Este 0 -- -- 75
2019-11-19 12:00:00 8 0 Calma 4 Norte 0 -- -- 85
2019-11-19 11:00:00 5.9 0 Calma 4 Este 0 -- -- 97
2019-11-19 10:00:00 4.2 0 Calma 4 Noroeste 0 -- -- 100
2019-11-19 09:00:00 1.7 0 Calma 3 Noroeste 0 -- -- 99
2019-11-19 08:00:00 1 0 Calma 3 Sudeste 0 -- -- 98
2019-11-19 07:00:00 1.5 0 Calma 3 Noroeste 0 -- -- 98
2019-11-19 06:00:00 1.2 2 Noroeste 3 Noroeste 0 -- -- 98
2019-11-19 05:00:00 0.9 0 Calma 4 Noroeste 0 -- -- 97
2019-11-19 04:00:00 1.2 3 Sudeste 5 Oeste 0 -- -- 97
2019-11-19 03:00:00 1.5 0 Calma 3 Nordeste 0 -- -- 95
2019-11-19 02:00:00 2.5 0 Calma 5 Oeste 0 -- -- 96
2019-11-19 01:00:00 3.2 2 Oeste 4 Norte 0 -- -- 95
2019-11-19 00:00:00 4 2 Sudeste 6 Este 0 -- -- 93
2019-11-18 23:00:00 4.9 0 Calma 13 Oeste 0 -- -- 91
2019-11-18 22:00:00 4.7 2 Sudoeste 9 Noroeste 0 -- -- 90
2019-11-18 21:00:00 5.6 0 Calma 6 Oeste 0 -- -- 85
2019-11-18 20:00:00 6.5 0 Calma 8 Noroeste 0 -- -- 81
2019-11-18 19:00:00 7.8 8 Noroeste 14 Noroeste 0 -- -- 77
2019-11-18 18:00:00 10.1 10 Oeste 20 Oeste 0 -- -- 66
2019-11-18 17:00:00 12.5 6 Norte 18 Noroeste 0 -- -- 57
2019-11-18 16:00:00 13 9 Noroeste 19 Norte 0 -- -- 55
2019-11-18 15:00:00 12.6 7 Noroeste 15 Noroeste 0 -- -- 60
2019-11-18 14:00:00 12.1 9 Nordeste 17 Nordeste 0 -- -- 58
2019-11-18 13:00:00 11.3 2 Noroeste 15 Norte 0 -- -- 62
2019-11-18 12:00:00 10.3 4 Sudoeste 14 Noroeste 0 -- -- 71
2019-11-18 11:00:00 8.6 7 Noroeste 15 Noroeste 0 -- -- 79
2019-11-18 10:00:00 7.1 8 Noroeste 19 Noroeste 0 -- -- 84
2019-11-18 09:00:00 5.6 17 Noroeste 29 Noroeste 0 -- -- 88
2019-11-18 08:00:00 5 17 Noroeste 31 Noroeste 0 -- -- 88
2019-11-18 07:00:00 5.2 17 Noroeste 27 Noroeste 0 -- -- 88
2019-11-18 06:00:00 5.8 16 Noroeste 29 Noroeste 0 -- -- 86
2019-11-18 05:00:00 6.2 12 Noroeste 28 Noroeste 0 -- -- 87
2019-11-18 04:00:00 6.6 15 Noroeste 32 Noroeste 0 -- -- 87
2019-11-18 03:00:00 7.3 13 Noroeste 26 Noroeste 0 -- -- 88
2019-11-18 02:00:00 9 19 Noroeste 39 Noroeste 0.2 -- -- 85
2019-11-18 01:00:00 10.8 17 Noroeste 37 Noroeste 0 -- -- 92
2019-11-18 00:00:00 11.2 25 Noroeste 39 Oeste 0.4 -- -- 94
2019-11-17 23:00:00 11.1 18 Oeste 39 Oeste 1.4 -- -- 95
2019-11-17 22:00:00 11.2 31 Oeste 41 Oeste 0 -- -- 92
2019-11-17 21:00:00 11.8 26 Oeste 44 Oeste 0.2 -- -- 91
2019-11-17 20:00:00 12 32 Oeste 50 Oeste 0.4 -- -- 93
2019-11-17 19:00:00 12.2 27 Oeste 42 Oeste 3.4 -- -- 94
2019-11-17 18:00:00 12.2 15 Oeste 43 Oeste 0.2 -- -- 94
2019-11-17 17:00:00 12.5 12 Oeste 39 Oeste 0 -- -- 92
2019-11-17 16:00:00 12 13 Oeste 36 Oeste 0 -- -- 94
2019-11-17 15:00:00 11.2 16 Oeste 29 Oeste 0.6 -- -- 96
2019-11-17 14:00:00 10.7 19 Oeste 38 Oeste 1.4 -- -- 96
2019-11-17 13:00:00 8.6 5 Sur 21 Sudoeste 0.6 -- -- 99
2019-11-17 12:00:00 7.1 17 Sudoeste 24 Sudoeste 0.6 -- -- 98
2019-11-17 11:00:00 5.8 11 Sudoeste 19 Sudoeste 0.4 -- -- 97
2019-11-17 10:00:00 5.2 12 Sudoeste 23 Sur 0.6 -- -- 97
2019-11-17 09:00:00 4.6 10 Sur 20 Sur 0.6 -- -- 97
2019-11-17 08:00:00 3.8 4 Sudoeste 8 Sur 0.2 -- -- 95
2019-11-17 07:00:00 3.7 7 Sudoeste 16 Sudoeste 0 -- -- 90
2019-11-17 06:00:00 4.1 12 Sudoeste 18 Sudoeste 0 -- -- 84
2019-11-17 05:00:00 3.6 12 Sudoeste 15 Sudoeste 0 -- -- 85
2019-11-17 04:00:00 4.8 13 Oeste 21 Oeste 0 -- -- 82
2019-11-17 03:00:00 3.4 11 Oeste 17 Oeste 0 -- -- 85
2019-11-17 02:00:00 4.3 12 Oeste 23 Oeste 0 -- -- 81
2019-11-17 01:00:00 5.1 14 Oeste 25 Oeste 0 -- -- 76
2019-11-17 00:00:00 5.2 15 Oeste 22 Oeste 0 -- -- 74
2019-11-16 23:00:00 5.2 16 Oeste 21 Oeste 0 -- -- 72
2019-11-16 22:00:00 6.6 15 Oeste 23 Oeste 0 -- -- 64
2019-11-16 21:00:00 7.1 17 Oeste 22 Oeste 0 -- -- 61
2019-11-16 20:00:00 5.9 6 Sudoeste 14 Oeste 0 -- -- 63
2019-11-16 19:00:00 7.8 10 Oeste 21 Noroeste 0 -- -- 57
2019-11-16 18:00:00 9.1 15 Noroeste 25 Noroeste 0 -- -- 53
2019-11-16 17:00:00 10.8 15 Noroeste 30 Oeste 0 -- -- 46
2019-11-16 16:00:00 11.4 18 Oeste 29 Oeste 0 -- -- 45
2019-11-16 15:00:00 11.4 15 Oeste 30 Oeste 0 -- -- 46
2019-11-16 14:00:00 10.7 11 Oeste 24 Oeste 0 -- -- 48
2019-11-16 13:00:00 10.1 8 Oeste 13 Oeste 0 -- -- 49
2019-11-16 12:00:00 8.9 3 Este 8 Nordeste 0 -- -- 59
2019-11-16 11:00:00 7.4 2 Sudoeste 11 Norte 0 -- -- 64
2019-11-16 10:00:00 5.2 8 Oeste 14 Oeste 0 -- -- 74
2019-11-16 09:00:00 3 3 Sur 12 Oeste 0 -- -- 83
2019-11-16 08:00:00 1.3 6 Noroeste 12 Sur 0 -- -- 89
2019-11-16 07:00:00 2.3 5 Noroeste 14 Noroeste 0 -- -- 82
2019-11-16 06:00:00 3 7 Oeste 26 Noroeste 0 -- -- 79
2019-11-16 05:00:00 3.2 15 Noroeste 30 Noroeste 0 -- -- 78
2019-11-16 04:00:00 3.9 21 Noroeste 32 Noroeste 0 -- -- 73
2019-11-16 03:00:00 3.5 8 Noroeste 15 Noroeste 0 -- -- 73
2019-11-16 02:00:00 4 11 Noroeste 21 Noroeste 0 -- -- 71
2019-11-16 01:00:00 4.2 10 Noroeste 17 Noroeste 0 -- -- 68
2019-11-16 00:00:00 4.5 8 Noroeste 18 Noroeste 0 -- -- 66
2019-11-15 23:00:00 4.9 6 Noroeste 17 Noroeste 0 -- -- 63
2019-11-15 22:00:00 5.8 9 Noroeste 19 Noroeste 0 -- -- 60
2019-11-15 21:00:00 6.7 10 Noroeste 15 Noroeste 0 -- -- 56
2019-11-15 20:00:00 7.2 9 Noroeste 20 Noroeste 0 -- -- 57
2019-11-15 19:00:00 8.2 15 Noroeste 23 Noroeste 0 -- -- 52
2019-11-15 18:00:00 9 13 Noroeste 23 Noroeste 0 -- -- 52
2019-11-15 17:00:00 9.2 14 Noroeste 31 Noroeste 0 -- -- 55
2019-11-15 16:00:00 9.7 18 Noroeste 31 Noroeste 0 -- -- 54
2019-11-15 15:00:00 9.6 19 Noroeste 32 Noroeste 0 -- -- 54
2019-11-15 14:00:00 8.2 16 Noroeste 34 Noroeste 0 -- -- 60
2019-11-15 13:00:00 7.5 21 Noroeste 32 Noroeste 0 -- -- 62
2019-11-15 12:00:00 6.9 19 Noroeste 35 Noroeste 0 -- -- 64
2019-11-15 11:00:00 6.6 26 Noroeste 40 Oeste 0 -- -- 69
2019-11-15 10:00:00 5.3 24 Oeste 36 Noroeste 0 -- -- 80
2019-11-15 09:00:00 4.1 20 Noroeste 42 Oeste 0 -- -- 82
2019-11-15 08:00:00 3.6 23 Oeste 44 Oeste 0 -- -- 86
2019-11-15 07:00:00 3.7 30 Oeste 47 Oeste 0 -- -- 88
2019-11-15 06:00:00 4.2 29 Noroeste 62 Oeste 0 -- -- 85
2019-11-15 05:00:00 4.4 31 Noroeste 62 Noroeste 0 -- -- 83
2019-11-15 04:00:00 4.4 37 Noroeste 59 Oeste 0 -- -- 85
2019-11-15 03:00:00 4.7 35 Noroeste 52 Oeste 0 -- -- 84
2019-11-15 02:00:00 5.6 37 Noroeste 57 Oeste 0 -- -- 77
2019-11-15 01:00:00 5.9 37 Oeste 57 Noroeste 0 -- -- 77
2019-11-15 00:00:00 6.6 40 Noroeste 55 Oeste 0 -- -- 76